createdAt,value
2019-06-15T00:00:30.217Z,99560.25
2019-06-15T00:02:56.622Z,99557.13
2019-06-15T00:05:22.755Z,99550.37
2019-06-15T00:07:49.008Z,99545.77
2019-06-15T00:10:15.147Z,99542.83
2019-06-15T00:12:41.313Z,99535.22
2019-06-15T00:15:07.958Z,99532.85
2019-06-15T00:17:34.143Z,99528.35
2019-06-15T00:20:00.377Z,99522.30
2019-06-15T00:22:26.605Z,99508.95
2019-06-15T00:24:52.762Z,99498.51
2019-06-15T00:27:19.190Z,99492.66
2019-06-15T00:29:45.333Z,99492.72
2019-06-15T00:32:11.489Z,99492.44
2019-06-15T00:34:37.623Z,99500.80
2019-06-15T00:37:04.915Z,99490.91
2019-06-15T00:39:31.167Z,99498.89
2019-06-15T00:41:57.325Z,99502.19
2019-06-15T00:44:23.495Z,99507.21
2019-06-15T00:46:49.677Z,99513.32
2019-06-15T00:49:15.838Z,99500.91
2019-06-15T00:51:42.082Z,99484.28
2019-06-15T00:54:08.209Z,99461.02
2019-06-15T00:56:34.387Z,99447.55
2019-06-15T00:59:00.518Z,99441.00
2019-06-15T01:01:26.707Z,99450.23
2019-06-15T01:03:53.940Z,99458.68
2019-06-15T01:06:20.623Z,99451.25
2019-06-15T01:08:46.774Z,99447.95
2019-06-15T01:11:12.903Z,99453.58
2019-06-15T01:13:39.477Z,99449.02
2019-06-15T01:16:05.592Z,99442.34
2019-06-15T01:18:31.752Z,99442.55
2019-06-15T01:20:58.460Z,99443.77
2019-06-15T01:23:24.685Z,99442.27
2019-06-15T01:26:09.289Z,99432.34
2019-06-15T01:28:35.449Z,99420.01
2019-06-15T01:31:01.594Z,99411.64
2019-06-15T01:33:27.766Z,99402.30
2019-06-15T01:35:53.895Z,99389.73
2019-06-15T01:38:20.085Z,99382.01
2019-06-15T01:40:46.205Z,99386.58
2019-06-15T01:43:12.371Z,99381.09
2019-06-15T01:45:38.871Z,99369.33
2019-06-15T01:48:05.071Z,99363.27
2019-06-15T01:50:31.554Z,99360.68
2019-06-15T01:52:57.739Z,99362.34
2019-06-15T01:55:24.222Z,99355.91
2019-06-15T01:57:50.410Z,99364.87
2019-06-15T02:00:20.313Z,99375.55
2019-06-15T02:02:47.073Z,99375.45
2019-06-15T02:05:13.695Z,99374.99
2019-06-15T02:07:39.952Z,99373.78
2019-06-15T02:10:08.326Z,99372.37
2019-06-15T02:12:34.828Z,99376.23
2019-06-15T02:15:01.010Z,99363.69
2019-06-15T02:17:27.510Z,99358.42
2019-06-15T02:19:53.711Z,99352.41
2019-06-15T02:22:20.279Z,99351.88
2019-06-15T02:24:46.521Z,99344.94
2019-06-15T02:27:12.683Z,99337.64
2019-06-15T02:29:38.874Z,99332.95
2019-06-15T02:32:05.032Z,99330.00
2019-06-15T02:34:31.230Z,99340.72
2019-06-15T02:36:57.406Z,99353.14
2019-06-15T02:39:23.597Z,99353.11
2019-06-15T02:41:49.759Z,99339.95
2019-06-15T02:44:16.459Z,99342.47
2019-06-15T02:46:42.652Z,99325.39
2019-06-15T02:49:08.830Z,99315.20
2019-06-15T02:51:35.030Z,99312.13
2019-06-15T02:54:07.733Z,99312.13
2019-06-15T02:56:34.223Z,99302.09
2019-06-15T02:59:00.380Z,99300.06
2019-06-15T03:01:26.588Z,99291.55
2019-06-15T03:03:52.767Z,99300.37
2019-06-15T03:06:19.258Z,99295.56
2019-06-15T03:08:45.601Z,99309.05
2019-06-15T03:11:11.868Z,99319.78
2019-06-15T03:13:38.063Z,99326.67
2019-06-15T03:16:05.024Z,99334.12
2019-06-15T03:18:31.339Z,99331.25
2019-06-15T03:20:57.550Z,99336.99
2019-06-15T03:23:23.789Z,99328.44
2019-06-15T03:26:04.408Z,99310.41
2019-06-15T03:28:18.060Z,99308.21
2019-06-15T03:30:44.263Z,99304.49
2019-06-15T03:33:10.448Z,99308.31
2019-06-15T03:35:36.897Z,99309.13
2019-06-15T03:38:04.071Z,99301.00
2019-06-15T03:40:30.546Z,99305.91
2019-06-15T03:42:56.992Z,99307.47
2019-06-15T03:45:23.177Z,99293.39
2019-06-15T03:47:49.354Z,99288.22
2019-06-15T03:50:15.868Z,99284.87
2019-06-15T03:52:42.059Z,99280.23
2019-06-15T03:55:09.570Z,99280.95
2019-06-15T03:57:35.734Z,99273.98
2019-06-15T04:00:03.139Z,99269.05
2019-06-15T04:02:29.296Z,99266.51
2019-06-15T04:04:55.517Z,99266.98
2019-06-15T04:07:21.687Z,99269.70
2019-06-15T04:09:47.941Z,99269.46
2019-06-15T04:12:14.094Z,99267.91
2019-06-15T04:14:40.304Z,99265.37
2019-06-15T04:17:06.474Z,99266.31
2019-06-15T04:19:32.648Z,99261.23
2019-06-15T04:21:58.812Z,99263.44
2019-06-15T04:24:25.035Z,99251.53
2019-06-15T04:26:51.290Z,99246.16
2019-06-15T04:29:17.484Z,99238.98
2019-06-15T04:31:43.681Z,99238.07
2019-06-15T04:34:10.170Z,99243.98
2019-06-15T04:36:36.699Z,99247.09
2019-06-15T04:39:05.708Z,99249.84
2019-06-15T04:41:32.274Z,99246.66
2019-06-15T04:43:58.443Z,99238.66
2019-06-15T04:46:24.643Z,99234.29
2019-06-15T04:48:50.812Z,99237.56
2019-06-15T04:51:17.033Z,99241.41
2019-06-15T04:53:43.475Z,99234.37
2019-06-15T04:56:09.997Z,99238.96
2019-06-15T04:58:36.495Z,99238.58
2019-06-15T05:01:04.006Z,99242.06
2019-06-15T05:03:30.611Z,99245.47
2019-06-15T05:05:56.801Z,99243.92
2019-06-15T05:08:23.294Z,99252.42
2019-06-15T05:10:49.538Z,99251.19
2019-06-15T05:13:15.712Z,99241.34
2019-06-15T05:15:41.924Z,99233.07
2019-06-15T05:18:08.107Z,99242.58
2019-06-15T05:20:34.299Z,99235.73
2019-06-15T05:23:00.481Z,99231.26
2019-06-15T05:25:26.738Z,99226.63
2019-06-15T05:27:52.932Z,99231.36
2019-06-15T05:30:19.233Z,99235.34
2019-06-15T05:32:45.479Z,99234.19
2019-06-15T05:35:12.842Z,99229.79
2019-06-15T05:37:39.902Z,99236.19
2019-06-15T05:40:07.105Z,99246.06
2019-06-15T05:42:33.383Z,99239.12
2019-06-15T05:44:59.898Z,99237.55
2019-06-15T05:47:26.428Z,99240.86
2019-06-15T05:49:52.993Z,99241.32
2019-06-15T05:52:19.219Z,99250.38
2019-06-15T05:54:45.419Z,99246.45
2019-06-15T05:57:21.264Z,99256.51
2019-06-15T05:59:39.697Z,99252.91
2019-06-15T06:02:06.642Z,99254.77
2019-06-15T06:04:32.893Z,99252.23
2019-06-15T06:06:59.363Z,99251.35
2019-06-15T06:09:25.833Z,99253.42
2019-06-15T06:11:52.444Z,99256.67
2019-06-15T06:14:18.877Z,99256.66
2019-06-15T06:16:45.367Z,99244.42
2019-06-15T06:19:11.877Z,99251.67
2019-06-15T06:21:38.307Z,99258.59
2019-06-15T06:24:04.540Z,99259.79
2019-06-15T06:26:31.091Z,99255.16
2019-06-15T06:28:57.699Z,99254.92
2019-06-15T06:31:24.368Z,99255.72
2019-06-15T06:33:50.595Z,99251.73
2019-06-15T06:36:17.372Z,99269.41
2019-06-15T06:38:43.566Z,99269.55
2019-06-15T06:41:09.732Z,99271.70
2019-06-15T06:43:35.947Z,99280.88
2019-06-15T06:46:02.128Z,99281.45
2019-06-15T06:48:28.639Z,99275.60
2019-06-15T06:50:54.801Z,99273.12
2019-06-15T06:53:21.013Z,99263.64
2019-06-15T06:55:47.409Z,99262.61
2019-06-15T06:58:13.667Z,99259.25
2019-06-15T07:00:39.844Z,99262.39
2019-06-15T07:03:06.475Z,99262.08
2019-06-15T07:05:32.670Z,99263.27
2019-06-15T07:07:58.877Z,99257.34
2019-06-15T07:10:25.055Z,99262.19
2019-06-15T07:12:51.255Z,99255.86
2019-06-15T07:15:18.319Z,99260.56
2019-06-15T07:17:44.550Z,99260.47
2019-06-15T07:20:12.361Z,99259.22
2019-06-15T07:22:38.548Z,99259.16
2019-06-15T07:25:05.536Z,99259.20
2019-06-15T07:27:32.171Z,99255.84
2019-06-15T07:29:58.338Z,99252.20
2019-06-15T07:32:24.505Z,99255.84
2019-06-15T07:34:51.005Z,99249.71
2019-06-15T07:37:17.526Z,99255.90
2019-06-15T07:39:44.089Z,99255.13
2019-06-15T07:42:10.612Z,99253.27
2019-06-15T07:44:37.151Z,99257.72
2019-06-15T07:47:03.694Z,99260.78
2019-06-15T07:49:30.254Z,99267.02
2019-06-15T07:51:56.977Z,99266.59
2019-06-15T07:54:23.180Z,99266.87
2019-06-15T07:56:49.342Z,99271.00
2019-06-15T07:59:15.538Z,99277.47
2019-06-15T08:01:41.703Z,99283.91
2019-06-15T08:04:08.008Z,99288.84
2019-06-15T08:06:34.592Z,99292.00
2019-06-15T08:09:00.790Z,99300.11
2019-06-15T08:11:26.963Z,99300.30
2019-06-15T08:13:53.144Z,99297.56
2019-06-15T08:16:19.315Z,99292.94
2019-06-15T08:18:45.512Z,99283.95
2019-06-15T08:21:11.783Z,99287.81
2019-06-15T08:23:37.986Z,99288.12
2019-06-15T08:26:04.164Z,99282.92
2019-06-15T08:28:39.898Z,99283.16
2019-06-15T08:30:58.713Z,99290.62
2019-06-15T08:33:24.865Z,99289.43
2019-06-15T08:35:57.616Z,99292.92
2019-06-15T08:38:23.854Z,99299.20
2019-06-15T08:40:50.039Z,99305.56
2019-06-15T08:43:16.208Z,99303.55
2019-06-15T08:45:42.391Z,99301.73
2019-06-15T08:48:08.874Z,99303.83
2019-06-15T08:50:35.063Z,99297.31
2019-06-15T08:53:01.588Z,99305.52
2019-06-15T08:55:27.793Z,99299.80
2019-06-15T08:57:54.247Z,99308.91
2019-06-15T09:00:20.774Z,99313.77
2019-06-15T09:02:47.305Z,99306.75
2019-06-15T09:05:13.604Z,99302.48
2019-06-15T09:07:39.781Z,99299.50
2019-06-15T09:10:07.385Z,99298.71
2019-06-15T09:12:33.882Z,99303.68
2019-06-15T09:15:00.419Z,99310.23
2019-06-15T09:17:26.857Z,99307.98
2019-06-15T09:19:53.089Z,99309.05
2019-06-15T09:22:19.566Z,99311.69
2019-06-15T09:24:45.803Z,99310.16
2019-06-15T09:27:11.963Z,99307.02
2019-06-15T09:29:38.141Z,99313.56
2019-06-15T09:32:04.323Z,99312.48
2019-06-15T09:34:30.812Z,99310.15
2019-06-15T09:36:56.995Z,99312.92
2019-06-15T09:39:23.175Z,99308.66
2019-06-15T09:41:49.350Z,99305.36
2019-06-15T09:44:15.509Z,99301.08
2019-06-15T09:46:41.677Z,99307.66
2019-06-15T09:49:07.827Z,99304.51
2019-06-15T09:51:34.026Z,99304.11
2019-06-15T09:54:00.479Z,99305.05
2019-06-15T09:56:27.428Z,99300.37
2019-06-15T09:58:53.633Z,99308.85
2019-06-15T10:01:20.131Z,99311.77
2019-06-15T10:03:46.272Z,99304.74
2019-06-15T10:06:12.456Z,99307.78
2019-06-15T10:08:38.621Z,99310.66
2019-06-15T10:11:05.159Z,99318.22
2019-06-15T10:13:31.630Z,99319.34
2019-06-15T10:15:57.857Z,99312.24
2019-06-15T10:18:24.254Z,99302.39
2019-06-15T10:20:50.442Z,99305.29
2019-06-15T10:23:16.600Z,99302.45
2019-06-15T10:25:42.782Z,99305.03
2019-06-15T10:28:08.979Z,99315.25
2019-06-15T10:30:35.154Z,99321.06
2019-06-15T10:33:01.337Z,99313.91
2019-06-15T10:35:27.514Z,99317.58
2019-06-15T10:37:53.755Z,99315.96
2019-06-15T10:40:20.020Z,99315.97
2019-06-15T10:42:46.187Z,99316.84
2019-06-15T10:45:13.141Z,99323.18
2019-06-15T10:47:39.697Z,99311.27
2019-06-15T10:50:06.939Z,99321.37
2019-06-15T10:52:33.683Z,99332.36
2019-06-15T10:54:59.847Z,99322.24
2019-06-15T10:57:26.377Z,99323.95
2019-06-15T10:59:57.431Z,99326.55
2019-06-15T11:02:21.407Z,99324.95
2019-06-15T11:04:47.627Z,99331.23
2019-06-15T11:07:13.895Z,99335.78
2019-06-15T11:09:40.416Z,99330.91
2019-06-15T11:12:06.976Z,99329.16
2019-06-15T11:14:33.161Z,99340.70
2019-06-15T11:17:00.090Z,99344.88
2019-06-15T11:19:26.270Z,99340.89
2019-06-15T11:21:52.426Z,99347.25
2019-06-15T11:24:18.679Z,99343.52
2019-06-15T11:26:44.855Z,99352.45
2019-06-15T11:29:11.102Z,99357.80
2019-06-15T11:31:37.276Z,99350.90
2019-06-15T11:34:03.719Z,99347.47
2019-06-15T11:36:29.866Z,99349.52
2019-06-15T11:38:56.123Z,99349.38
2019-06-15T11:41:22.304Z,99346.22
2019-06-15T11:43:48.554Z,99350.77
2019-06-15T11:46:14.722Z,99354.18
2019-06-15T11:48:40.950Z,99353.27
2019-06-15T11:51:07.443Z,99359.15
2019-06-15T11:53:33.733Z,99357.47
2019-06-15T11:56:00.221Z,99360.75
2019-06-15T11:58:26.804Z,99362.30
2019-06-15T12:00:53.398Z,99348.77
2019-06-15T12:03:20.570Z,99350.66
2019-06-15T12:05:46.846Z,99343.64
2019-06-15T12:08:13.951Z,99343.23
2019-06-15T12:10:40.594Z,99356.50
2019-06-15T12:13:06.946Z,99364.25
2019-06-15T12:15:33.108Z,99358.41
2019-06-15T12:17:59.284Z,99355.70
2019-06-15T12:20:25.522Z,99345.16
2019-06-15T12:22:52.101Z,99354.13
2019-06-15T12:25:18.709Z,99360.02
2019-06-15T12:27:45.151Z,99352.67
2019-06-15T12:30:12.459Z,99357.53
2019-06-15T12:32:39.536Z,99356.94
2019-06-15T12:35:07.135Z,99359.88
2019-06-15T12:37:33.628Z,99364.05
2019-06-15T12:40:00.068Z,99356.42
2019-06-15T12:42:26.510Z,99363.30
2019-06-15T12:44:52.816Z,99363.69
2019-06-15T12:47:18.989Z,99370.14
2019-06-15T12:49:45.220Z,99375.08
2019-06-15T12:52:11.408Z,99379.23
2019-06-15T12:54:37.648Z,99395.58
2019-06-15T12:57:03.821Z,99394.95
2019-06-15T12:59:30.091Z,99395.49
2019-06-15T13:01:56.333Z,99386.09
2019-06-15T13:04:22.614Z,99388.66
2019-06-15T13:06:49.224Z,99392.73
2019-06-15T13:09:15.471Z,99387.75
2019-06-15T13:11:41.708Z,99398.31
2019-06-15T13:14:08.039Z,99403.52
2019-06-15T13:16:39.516Z,99406.56
2019-06-15T13:19:02.323Z,99406.06
2019-06-15T13:21:28.532Z,99409.52
2019-06-15T13:23:54.721Z,99410.00
2019-06-15T13:26:20.978Z,99400.16
2019-06-15T13:28:47.497Z,99401.63
2019-06-15T13:31:18.415Z,99406.70
2019-06-15T13:33:43.592Z,99403.65
2019-06-15T13:36:12.473Z,99410.11
2019-06-15T13:38:38.020Z,99414.12
2019-06-15T13:41:11.947Z,99417.63
2019-06-15T13:43:38.392Z,99422.29
2019-06-15T13:46:04.654Z,99424.54
2019-06-15T13:48:31.162Z,99423.03
2019-06-15T13:50:57.403Z,99422.81
2019-06-15T13:53:23.835Z,99420.55
2019-06-15T13:55:50.118Z,99418.00
2019-06-15T13:58:16.622Z,99420.62
2019-06-15T14:00:43.030Z,99424.25
2019-06-15T14:03:09.207Z,99434.27
2019-06-15T14:05:35.441Z,99429.77
2019-06-15T14:08:01.614Z,99440.42
2019-06-15T14:10:28.306Z,99447.08
2019-06-15T14:12:54.488Z,99438.91
2019-06-15T14:15:20.842Z,99432.55
2019-06-15T14:17:47.045Z,99426.78
2019-06-15T14:20:13.901Z,99426.53
2019-06-15T14:22:40.076Z,99425.57
2019-06-15T14:25:06.714Z,99440.61
2019-06-15T14:27:32.893Z,99451.07
2019-06-15T14:29:59.086Z,99458.57
2019-06-15T14:32:25.326Z,99457.98
2019-06-15T14:34:51.505Z,99458.27
2019-06-15T14:37:17.743Z,99449.61
2019-06-15T14:39:44.247Z,99447.95
2019-06-15T14:42:10.503Z,99458.44
2019-06-15T14:44:36.662Z,99456.23
2019-06-15T14:47:03.137Z,99453.59
2019-06-15T14:49:29.262Z,99456.93
2019-06-15T14:51:55.514Z,99450.34
2019-06-15T14:54:21.674Z,99453.23
2019-06-15T14:56:48.180Z,99460.99
2019-06-15T14:59:14.633Z,99455.13
2019-06-15T15:01:41.492Z,99453.13
2019-06-15T15:04:07.912Z,99443.28
2019-06-15T15:06:36.890Z,99445.63
2019-06-15T15:09:06.551Z,99441.12
2019-06-15T15:11:33.079Z,99450.48
2019-06-15T15:13:59.285Z,99448.50
2019-06-15T15:16:25.848Z,99452.82
2019-06-15T15:18:52.003Z,99450.22
2019-06-15T15:21:18.176Z,99451.39
2019-06-15T15:23:46.438Z,99459.37
2019-06-15T15:26:12.474Z,99461.36
2019-06-15T15:28:39.074Z,99471.11
2019-06-15T15:31:06.568Z,99469.53
2019-06-15T15:33:33.094Z,99478.47
2019-06-15T15:35:59.269Z,99466.61
2019-06-15T15:38:25.724Z,99474.69
2019-06-15T15:40:51.903Z,99479.05
2019-06-15T15:43:26.412Z,99487.81
2019-06-15T15:45:52.662Z,99491.75
2019-06-15T15:48:21.029Z,99492.29
2019-06-15T15:50:47.118Z,99493.80
2019-06-15T15:53:13.515Z,99501.62
2019-06-15T15:55:39.715Z,99489.97
2019-06-15T15:58:12.597Z,99486.81
2019-06-15T16:00:38.929Z,99491.92
2019-06-15T16:03:07.104Z,99491.68
2019-06-15T16:05:33.348Z,99483.94
2019-06-15T16:07:59.612Z,99486.94
2019-06-15T16:10:26.634Z,99492.59
2019-06-15T16:12:56.664Z,99499.01
2019-06-15T16:15:22.375Z,99495.12
2019-06-15T16:17:48.622Z,99493.92
2019-06-15T16:20:17.262Z,99495.79
2019-06-15T16:22:46.242Z,99503.97
2019-06-15T16:25:12.434Z,99509.05
2019-06-15T16:27:38.892Z,99514.95
2019-06-15T16:30:11.238Z,99521.42
2019-06-15T16:32:37.701Z,99531.61
2019-06-15T16:35:06.254Z,99535.58
2019-06-15T16:37:32.451Z,99538.79
2019-06-15T16:39:58.671Z,99539.86
2019-06-15T16:42:26.742Z,99545.48
2019-06-15T16:44:56.023Z,99547.62
2019-06-15T16:47:21.776Z,99548.70
2019-06-15T16:49:48.019Z,99561.66
2019-06-15T16:52:16.428Z,99558.55
2019-06-15T16:54:42.610Z,99564.17
2019-06-15T16:57:09.063Z,99560.92
2019-06-15T16:59:36.399Z,99567.20
2019-06-15T17:02:03.186Z,99571.92
2019-06-15T17:04:29.413Z,99572.23
2019-06-15T17:06:56.589Z,99570.20
2019-06-15T17:09:22.976Z,99572.24
2019-06-15T17:11:49.173Z,99576.30
2019-06-15T17:14:17.141Z,99584.78
2019-06-15T17:16:45.994Z,99588.75
2019-06-15T17:19:12.007Z,99591.42
2019-06-15T17:21:38.177Z,99597.94
2019-06-15T17:24:06.782Z,99589.67
2019-06-15T17:26:32.809Z,99595.49
2019-06-15T17:28:59.091Z,99591.48
2019-06-15T17:31:27.192Z,99586.65
2019-06-15T17:33:56.192Z,99582.34
2019-06-15T17:36:21.813Z,99574.35
2019-06-15T17:38:48.066Z,99592.98
2019-06-15T17:41:17.126Z,99588.45
2019-06-15T17:43:42.457Z,99573.79
2019-06-15T17:46:08.693Z,99573.13
2019-06-15T17:48:36.927Z,99568.51
2019-06-15T17:51:03.091Z,99568.66
2019-06-15T17:53:29.280Z,99572.95
2019-06-15T17:55:56.124Z,99573.73
2019-06-15T17:58:22.992Z,99569.32
2019-06-15T18:00:49.659Z,99569.75
2019-06-15T18:03:16.847Z,99568.58
2019-06-15T18:05:43.761Z,99560.79
2019-06-15T18:08:10.645Z,99560.34
2019-06-15T18:10:37.183Z,99558.61
2019-06-15T18:13:03.991Z,99555.97
2019-06-15T18:15:30.241Z,99567.31
2019-06-15T18:17:56.432Z,99569.08
2019-06-15T18:20:27.270Z,99574.50
2019-06-15T18:22:56.408Z,99577.02
2019-06-15T18:25:22.046Z,99580.52
2019-06-15T18:27:48.220Z,99588.66
2019-06-15T18:30:16.668Z,99592.91
2019-06-15T18:32:42.983Z,99592.19
2019-06-15T18:35:09.427Z,99595.81
2019-06-15T18:37:37.120Z,99603.55
2019-06-15T18:40:07.418Z,99603.62
2019-06-15T18:42:34.052Z,99611.42
2019-06-15T18:45:00.323Z,99604.39
2019-06-15T18:47:26.731Z,99597.43
2019-06-15T18:49:52.946Z,99605.95
2019-06-15T18:52:19.195Z,99612.09
2019-06-15T18:54:46.687Z,99612.02
2019-06-15T18:57:13.262Z,99615.50
2019-06-15T18:59:39.398Z,99625.50
2019-06-15T19:02:06.683Z,99624.05
2019-06-15T19:04:33.131Z,99630.39
2019-06-15T19:07:00.059Z,99632.22
2019-06-15T19:09:26.856Z,99644.77
2019-06-15T19:11:53.290Z,99644.28
2019-06-15T19:14:19.462Z,99641.47
2019-06-15T19:16:47.118Z,99646.88
2019-06-15T19:19:13.579Z,99651.37
2019-06-15T19:21:39.832Z,99649.83
2019-06-15T19:24:07.297Z,99656.93
2019-06-15T19:26:33.809Z,99655.73
2019-06-15T19:29:00.093Z,99661.19
2019-06-15T19:31:27.808Z,99672.83
2019-06-15T19:33:56.404Z,99682.28
2019-06-15T19:36:22.382Z,99689.98
2019-06-15T19:38:48.552Z,99700.38
2019-06-15T19:41:15.973Z,99701.84
2019-06-15T19:43:42.372Z,99701.69
2019-06-15T19:46:08.545Z,99705.64
2019-06-15T19:48:36.927Z,99707.27
2019-06-15T19:51:02.920Z,99708.27
2019-06-15T19:53:29.532Z,99713.77
2019-06-15T19:55:57.467Z,99715.35
2019-06-15T19:58:26.257Z,99721.22
2019-06-15T20:00:52.050Z,99725.23
2019-06-15T20:03:18.280Z,99716.05
2019-06-15T20:05:46.163Z,99713.05
2019-06-15T20:08:12.848Z,99707.52
2019-06-15T20:10:38.990Z,99697.95
2019-06-15T20:13:07.102Z,99697.70
2019-06-15T20:15:33.314Z,99690.78
2019-06-15T20:17:59.981Z,99693.81
2019-06-15T20:20:31.232Z,99686.03
2019-06-15T20:22:58.013Z,99689.58
2019-06-15T20:25:26.704Z,99690.77
2019-06-15T20:27:53.008Z,99695.36
2019-06-15T20:30:19.565Z,99700.28
2019-06-15T20:32:46.280Z,99705.03
2019-06-15T20:35:18.705Z,99704.79
2019-06-15T20:37:41.944Z,99712.52
2019-06-15T20:40:08.704Z,99714.91
2019-06-15T20:42:36.681Z,99722.83
2019-06-15T20:45:06.406Z,99727.27
2019-06-15T20:47:32.650Z,99738.34
2019-06-15T20:49:58.799Z,99740.33
2019-06-15T20:52:25.056Z,99737.58
2019-06-15T20:54:51.213Z,99734.87
2019-06-15T20:57:17.563Z,99743.67
2019-06-15T20:59:43.736Z,99753.16
2019-06-15T21:02:10.081Z,99763.50
2019-06-15T21:04:36.538Z,99771.11
2019-06-15T21:07:03.351Z,99784.89
2019-06-15T21:09:29.576Z,99798.47
2019-06-15T21:11:55.786Z,99800.52
2019-06-15T21:14:22.055Z,99802.52
2019-06-15T21:16:48.546Z,99811.64
2019-06-15T21:19:16.915Z,99828.11
2019-06-15T21:21:42.835Z,99832.70
2019-06-15T21:24:09.059Z,99836.55
2019-06-15T21:26:35.211Z,99838.34
2019-06-15T21:29:01.764Z,99851.35
2019-06-15T21:31:28.204Z,99852.78
2019-06-15T21:33:56.120Z,99848.86
2019-06-15T21:36:22.492Z,99851.77
2019-06-15T21:38:48.728Z,99854.38
2019-06-15T21:41:16.651Z,99860.73
2019-06-15T21:43:43.211Z,99861.77
2019-06-15T21:46:09.370Z,99857.15
2019-06-15T21:48:36.453Z,99866.70
2019-06-15T21:51:03.064Z,99860.47
2019-06-15T21:53:29.294Z,99872.56
2019-06-15T21:55:56.259Z,99877.22
2019-06-15T21:58:22.703Z,99880.08
2019-06-15T22:01:21.209Z,99887.64
2019-06-15T22:03:47.432Z,99893.82
2019-06-15T22:06:13.577Z,99896.91
2019-06-15T22:08:40.077Z,99898.89
2019-06-15T22:11:06.839Z,99902.66
2019-06-15T22:13:33.489Z,99904.59
2019-06-15T22:16:00.031Z,99913.80
2019-06-15T22:18:27.244Z,99916.87
2019-06-15T22:20:53.680Z,99918.28
2019-06-15T22:23:19.849Z,99915.69
2019-06-15T22:25:46.557Z,99914.21
2019-06-15T22:28:13.155Z,99909.95
2019-06-15T22:30:39.795Z,99904.19
2019-06-15T22:33:06.828Z,99909.36
2019-06-15T22:35:33.314Z,99910.05
2019-06-15T22:37:59.486Z,99920.78
2019-06-15T22:40:25.732Z,99927.17
2019-06-15T22:42:51.924Z,99929.19
2019-06-15T22:45:18.144Z,99939.38
2019-06-15T22:47:46.627Z,99940.92
2019-06-15T22:50:12.741Z,99955.13
2019-06-15T22:52:38.907Z,99954.72
2019-06-15T22:55:07.445Z,99965.39
2019-06-15T22:57:33.618Z,99960.30
2019-06-15T22:59:59.889Z,99954.68
2019-06-15T23:02:26.481Z,99958.91
2019-06-15T23:04:52.930Z,99960.48
2019-06-15T23:07:19.462Z,99965.06
2019-06-15T23:09:46.820Z,99971.98
2019-06-15T23:12:13.222Z,99973.52
2019-06-15T23:14:39.400Z,99965.76
2019-06-15T23:17:07.302Z,99966.94
2019-06-15T23:19:33.768Z,99962.23
2019-06-15T23:22:00.377Z,99975.77
2019-06-15T23:24:27.373Z,99974.88
2019-06-15T23:26:53.993Z,99974.52
2019-06-15T23:29:20.194Z,99973.99
2019-06-15T23:31:46.421Z,99975.19
2019-06-15T23:34:12.885Z,99986.20
2019-06-15T23:36:56.895Z,99989.27
2019-06-15T23:39:16.438Z,99991.26
2019-06-15T23:41:42.897Z,99993.95
2019-06-15T23:44:09.059Z,99992.01
2019-06-15T23:46:36.132Z,99988.86
2019-06-15T23:49:02.481Z,99982.68
2019-06-15T23:51:28.731Z,99980.38
2019-06-15T23:53:57.349Z,99985.84
2019-06-15T23:56:25.890Z,99986.17
2019-06-15T23:58:51.848Z,99986.00
